Ashley, Ohio
Current Conditions -  °F | °C
As of 3:24 AM on Thursday 29 Jan 2015 (Local Time) from KDLZ Reporting Station
Clear Clear  
Wind Chill: 15°   Ceiling: Unl
Heat Index: 27°   Visibility: 10mi
Dew Point: 18°   Wind: 14mph
Humidity: 69%   Direction: 150°SSE
Pressure: 30.06"   Gusts: NA
Location:  40.41°N, 82.96°W
Report Text: KDLZ 290824Z AUTO 15012KT 10SM CLR M03/M08 A3006 RMK AO2
Loading
Personal Weather Stations






























Interactive Weather Map New forecast layout! Learn more

10-Day Weather Forecast

Advertisements
Track Severe Weather on mobile